sensor_id;sensor_type;location;lat;lon;timestamp;P1;durP1;ratioP1;P2;durP2;ratioP2
35887;SDS011;21990;42.540;23.496;2023-09-18T00:02:07;17.73;;;10.25;;
35887;SDS011;21990;42.540;23.496;2023-09-18T00:04:34;29.67;;;10.48;;
35887;SDS011;21990;42.540;23.496;2023-09-18T00:07:00;21.90;;;10.55;;
35887;SDS011;21990;42.540;23.496;2023-09-18T00:09:27;21.45;;;11.23;;
35887;SDS011;21990;42.540;23.496;2023-09-18T00:11:54;17.45;;;11.32;;
35887;SDS011;21990;42.540;23.496;2023-09-18T00:14:19;27.95;;;11.18;;
35887;SDS011;21990;42.540;23.496;2023-09-18T00:16:45;25.65;;;9.85;;
35887;SDS011;21990;42.540;23.496;2023-09-18T00:19:10;19.15;;;10.63;;
35887;SDS011;21990;42.540;23.496;2023-09-18T00:21:36;16.02;;;10.95;;
35887;SDS011;21990;42.540;23.496;2023-09-18T00:24:02;21.50;;;11.60;;
35887;SDS011;21990;42.540;23.496;2023-09-18T00:26:29;18.60;;;12.07;;
35887;SDS011;21990;42.540;23.496;2023-09-18T00:28:55;22.75;;;12.35;;
35887;SDS011;21990;42.540;23.496;2023-09-18T00:31:21;20.90;;;13.25;;
35887;SDS011;21990;42.540;23.496;2023-09-18T00:33:47;24.65;;;12.95;;
35887;SDS011;21990;42.540;23.496;2023-09-18T00:36:13;23.92;;;11.75;;
35887;SDS011;21990;42.540;23.496;2023-09-18T00:38:38;27.52;;;12.93;;
35887;SDS011;21990;42.540;23.496;2023-09-18T00:41:04;27.90;;;14.80;;
35887;SDS011;21990;42.540;23.496;2023-09-18T00:43:31;24.08;;;14.27;;
35887;SDS011;21990;42.540;23.496;2023-09-18T00:45:56;29.60;;;15.60;;
35887;SDS011;21990;42.540;23.496;2023-09-18T00:48:22;26.40;;;15.35;;
35887;SDS011;21990;42.540;23.496;2023-09-18T00:50:48;26.30;;;14.43;;
35887;SDS011;21990;42.540;23.496;2023-09-18T00:53:14;20.75;;;13.57;;
35887;SDS011;21990;42.540;23.496;2023-09-18T00:55:42;26.90;;;14.68;;
35887;SDS011;21990;42.540;23.496;2023-09-18T00:58:08;27.23;;;15.10;;
35887;SDS011;21990;42.540;23.496;2023-09-18T01:00:35;27.92;;;14.90;;
35887;SDS011;21990;42.540;23.496;2023-09-18T01:03:01;25.08;;;16.50;;
35887;SDS011;21990;42.540;23.496;2023-09-18T01:05:30;28.38;;;19.20;;
35887;SDS011;21990;42.540;23.496;2023-09-18T01:07:57;33.47;;;21.30;;
35887;SDS011;21990;42.540;23.496;2023-09-18T01:10:23;42.00;;;25.50;;
35887;SDS011;21990;42.540;23.496;2023-09-18T01:12:55;33.65;;;23.55;;
35887;SDS011;21990;42.540;23.496;2023-09-18T01:15:30;42.60;;;25.00;;
35887;SDS011;21990;42.540;23.496;2023-09-18T01:18:02;46.42;;;25.65;;
35887;SDS011;21990;42.540;23.496;2023-09-18T01:20:28;39.72;;;25.30;;
35887;SDS011;21990;42.540;23.496;2023-09-18T01:22:54;43.38;;;26.90;;
35887;SDS011;21990;42.540;23.496;2023-09-18T01:25:19;35.70;;;23.42;;
35887;SDS011;21990;42.540;23.496;2023-09-18T01:27:45;33.20;;;22.00;;
35887;SDS011;21990;42.540;23.496;2023-09-18T01:30:11;39.72;;;24.10;;
35887;SDS011;21990;42.540;23.496;2023-09-18T01:32:38;44.70;;;24.60;;
35887;SDS011;21990;42.540;23.496;2023-09-18T01:35:05;33.78;;;21.92;;
35887;SDS011;21990;42.540;23.496;2023-09-18T01:37:33;40.17;;;22.77;;
35887;SDS011;21990;42.540;23.496;2023-09-18T01:40:00;31.95;;;22.42;;
35887;SDS011;21990;42.540;23.496;2023-09-18T01:42:31;45.83;;;22.55;;
35887;SDS011;21990;42.540;23.496;2023-09-18T01:45:00;34.53;;;23.20;;
35887;SDS011;21990;42.540;23.496;2023-09-18T01:47:30;29.30;;;21.52;;
35887;SDS011;21990;42.540;23.496;2023-09-18T01:50:07;34.65;;;19.33;;
35887;SDS011;21990;42.540;23.496;2023-09-18T01:52:35;42.85;;;22.83;;
35887;SDS011;21990;42.540;23.496;2023-09-18T01:55:01;35.58;;;22.75;;
35887;SDS011;21990;42.540;23.496;2023-09-18T01:57:29;36.58;;;22.55;;
35887;SDS011;21990;42.540;23.496;2023-09-18T01:59:55;32.08;;;19.75;;
35887;SDS011;21990;42.540;23.496;2023-09-18T02:02:20;32.17;;;22.20;;
35887;SDS011;21990;42.540;23.496;2023-09-18T02:04:50;35.97;;;20.85;;
35887;SDS011;21990;42.540;23.496;2023-09-18T02:07:24;27.08;;;18.83;;
35887;SDS011;21990;42.540;23.496;2023-09-18T02:09:49;31.45;;;21.90;;
35887;SDS011;21990;42.540;23.496;2023-09-18T02:12:20;30.25;;;22.55;;
35887;SDS011;21990;42.540;23.496;2023-09-18T02:14:52;32.10;;;20.85;;
35887;SDS011;21990;42.540;23.496;2023-09-18T02:18:21;35.05;;;21.92;;
35887;SDS011;21990;42.540;23.496;2023-09-18T02:23:20;34.92;;;21.50;;
35887;SDS011;21990;42.540;23.496;2023-09-18T02:26:14;32.90;;;21.70;;
35887;SDS011;21990;42.540;23.496;2023-09-18T02:28:47;34.03;;;22.17;;
35887;SDS011;21990;42.540;23.496;2023-09-18T02:31:19;32.08;;;21.38;;
35887;SDS011;21990;42.540;23.496;2023-09-18T02:34:07;34.83;;;21.52;;
35887;SDS011;21990;42.540;23.496;2023-09-18T02:37:09;37.83;;;20.55;;
35887;SDS011;21990;42.540;23.496;2023-09-18T02:39:36;33.83;;;20.38;;
35887;SDS011;21990;42.540;23.496;2023-09-18T02:42:02;35.47;;;21.35;;
35887;SDS011;21990;42.540;23.496;2023-09-18T02:44:27;32.03;;;21.35;;
35887;SDS011;21990;42.540;23.496;2023-09-18T02:47:00;34.13;;;20.65;;
35887;SDS011;21990;42.540;23.496;2023-09-18T02:49:38;30.48;;;20.92;;
35887;SDS011;21990;42.540;23.496;2023-09-18T02:52:14;35.80;;;22.35;;
35887;SDS011;21990;42.540;23.496;2023-09-18T02:54:39;35.08;;;21.58;;
35887;SDS011;21990;42.540;23.496;2023-09-18T02:57:05;35.17;;;20.50;;
35887;SDS011;21990;42.540;23.496;2023-09-18T03:00:00;35.30;;;21.17;;
35887;SDS011;21990;42.540;23.496;2023-09-18T03:02:27;40.33;;;22.33;;
35887;SDS011;21990;42.540;23.496;2023-09-18T03:05:19;43.15;;;21.52;;
35887;SDS011;21990;42.540;23.496;2023-09-18T03:08:20;32.88;;;21.60;;
35887;SDS011;21990;42.540;23.496;2023-09-18T03:13:53;30.35;;;22.08;;
35887;SDS011;21990;42.540;23.496;2023-09-18T03:16:31;33.30;;;23.10;;
35887;SDS011;21990;42.540;23.496;2023-09-18T03:19:05;37.78;;;24.55;;
35887;SDS011;21990;42.540;23.496;2023-09-18T03:21:36;28.55;;;20.77;;
35887;SDS011;21990;42.540;23.496;2023-09-18T03:24:31;36.38;;;22.67;;
35887;SDS011;21990;42.540;23.496;2023-09-18T03:27:53;33.22;;;21.73;;
35887;SDS011;21990;42.540;23.496;2023-09-18T03:34:01;45.33;;;25.67;;
35887;SDS011;21990;42.540;23.496;2023-09-18T03:36:54;36.53;;;24.50;;
35887;SDS011;21990;42.540;23.496;2023-09-18T03:40:10;34.38;;;22.92;;
35887;SDS011;21990;42.540;23.496;2023-09-18T03:55:14;44.70;;;22.25;;
35887;SDS011;21990;42.540;23.496;2023-09-18T04:01:53;36.88;;;22.63;;
35887;SDS011;21990;42.540;23.496;2023-09-18T06:25:04;35.60;;;23.00;;
35887;SDS011;21990;42.540;23.496;2023-09-18T06:28:13;33.40;;;21.02;;
35887;SDS011;21990;42.540;23.496;2023-09-18T06:31:28;36.13;;;22.23;;
35887;SDS011;21990;42.540;23.496;2023-09-18T06:34:12;32.20;;;20.55;;
35887;SDS011;21990;42.540;23.496;2023-09-18T06:36:39;40.05;;;20.70;;
35887;SDS011;21990;42.540;23.496;2023-09-18T06:39:07;41.85;;;21.60;;
35887;SDS011;21990;42.540;23.496;2023-09-18T06:41:47;34.40;;;21.52;;
35887;SDS011;21990;42.540;23.496;2023-09-18T06:44:13;36.92;;;20.95;;
35887;SDS011;21990;42.540;23.496;2023-09-18T06:46:38;31.98;;;21.15;;
35887;SDS011;21990;42.540;23.496;2023-09-18T06:49:06;32.17;;;21.50;;
35887;SDS011;21990;42.540;23.496;2023-09-18T06:51:35;30.60;;;20.83;;
35887;SDS011;21990;42.540;23.496;2023-09-18T06:54:08;35.50;;;21.85;;
35887;SDS011;21990;42.540;23.496;2023-09-18T06:56:53;31.35;;;20.17;;
35887;SDS011;21990;42.540;23.496;2023-09-18T06:59:20;31.73;;;19.60;;
35887;SDS011;21990;42.540;23.496;2023-09-18T07:01:45;28.30;;;19.38;;
35887;SDS011;21990;42.540;23.496;2023-09-18T07:04:40;33.58;;;19.35;;
35887;SDS011;21990;42.540;23.496;2023-09-18T07:07:10;29.90;;;19.17;;
35887;SDS011;21990;42.540;23.496;2023-09-18T07:09:40;30.50;;;18.33;;
35887;SDS011;21990;42.540;23.496;2023-09-18T07:12:07;28.77;;;18.80;;
35887;SDS011;21990;42.540;23.496;2023-09-18T07:14:37;29.42;;;18.77;;
35887;SDS011;21990;42.540;23.496;2023-09-18T07:17:06;33.45;;;19.35;;
35887;SDS011;21990;42.540;23.496;2023-09-18T07:19:36;29.25;;;19.15;;
35887;SDS011;21990;42.540;23.496;2023-09-18T07:22:03;30.42;;;18.35;;
35887;SDS011;21990;42.540;23.496;2023-09-18T07:24:30;31.08;;;19.58;;
35887;SDS011;21990;42.540;23.496;2023-09-18T07:27:06;29.40;;;18.38;;
35887;SDS011;21990;42.540;23.496;2023-09-18T07:29:48;36.47;;;19.88;;
35887;SDS011;21990;42.540;23.496;2023-09-18T07:32:17;27.58;;;18.30;;
35887;SDS011;21990;42.540;23.496;2023-09-18T07:35:09;29.30;;;18.42;;
35887;SDS011;21990;42.540;23.496;2023-09-18T07:37:45;31.48;;;19.05;;
35887;SDS011;21990;42.540;23.496;2023-09-18T07:40:13;29.23;;;18.92;;
35887;SDS011;21990;42.540;23.496;2023-09-18T07:42:40;26.58;;;17.52;;
35887;SDS011;21990;42.540;23.496;2023-09-18T07:45:08;28.10;;;18.00;;
35887;SDS011;21990;42.540;23.496;2023-09-18T07:47:34;27.30;;;19.50;;
35887;SDS011;21990;42.540;23.496;2023-09-18T07:50:04;30.00;;;18.92;;
35887;SDS011;21990;42.540;23.496;2023-09-18T07:52:37;30.75;;;18.38;;
35887;SDS011;21990;42.540;23.496;2023-09-18T07:55:04;30.63;;;18.90;;
35887;SDS011;21990;42.540;23.496;2023-09-18T07:57:30;27.65;;;18.50;;
35887;SDS011;21990;42.540;23.496;2023-09-18T07:59:59;30.25;;;18.15;;
35887;SDS011;21990;42.540;23.496;2023-09-18T08:02:44;22.83;;;15.77;;
35887;SDS011;21990;42.540;23.496;2023-09-18T08:05:28;24.63;;;16.13;;
35887;SDS011;21990;42.540;23.496;2023-09-18T08:08:12;36.17;;;18.58;;
35887;SDS011;21990;42.540;23.496;2023-09-18T08:10:38;23.23;;;14.20;;
35887;SDS011;21990;42.540;23.496;2023-09-18T08:13:03;17.77;;;12.57;;
35887;SDS011;21990;42.540;23.496;2023-09-18T08:15:37;23.70;;;13.50;;
35887;SDS011;21990;42.540;23.496;2023-09-18T08:18:05;23.40;;;13.35;;
35887;SDS011;21990;42.540;23.496;2023-09-18T08:20:31;23.50;;;13.65;;
35887;SDS011;21990;42.540;23.496;2023-09-18T08:22:58;33.10;;;13.82;;
35887;SDS011;21990;42.540;23.496;2023-09-18T08:25:31;19.45;;;12.65;;
35887;SDS011;21990;42.540;23.496;2023-09-18T08:28:00;19.42;;;12.90;;
35887;SDS011;21990;42.540;23.496;2023-09-18T08:30:26;18.70;;;12.60;;
35887;SDS011;21990;42.540;23.496;2023-09-18T08:32:51;22.70;;;13.45;;
35887;SDS011;21990;42.540;23.496;2023-09-18T08:35:17;18.20;;;12.40;;
35887;SDS011;21990;42.540;23.496;2023-09-18T08:37:43;18.13;;;12.15;;
35887;SDS011;21990;42.540;23.496;2023-09-18T08:40:12;17.50;;;12.73;;
35887;SDS011;21990;42.540;23.496;2023-09-18T08:42:39;27.45;;;12.52;;
35887;SDS011;21990;42.540;23.496;2023-09-18T08:45:53;23.58;;;12.73;;
35887;SDS011;21990;42.540;23.496;2023-09-18T08:48:01;15.40;;;10.38;;
35887;SDS011;21990;42.540;23.496;2023-09-18T08:50:29;23.25;;;11.20;;
35887;SDS011;21990;42.540;23.496;2023-09-18T08:52:55;18.48;;;10.07;;
35887;SDS011;21990;42.540;23.496;2023-09-18T08:55:21;16.98;;;11.38;;
35887;SDS011;21990;42.540;23.496;2023-09-18T08:57:48;19.70;;;9.95;;
35887;SDS011;21990;42.540;23.496;2023-09-18T09:00:14;15.05;;;10.18;;
35887;SDS011;21990;42.540;23.496;2023-09-18T09:02:43;15.63;;;9.68;;
35887;SDS011;21990;42.540;23.496;2023-09-18T09:05:09;19.77;;;9.88;;
35887;SDS011;21990;42.540;23.496;2023-09-18T09:07:34;21.55;;;10.30;;
35887;SDS011;21990;42.540;23.496;2023-09-18T09:10:00;16.20;;;9.15;;
35887;SDS011;21990;42.540;23.496;2023-09-18T09:15:14;15.68;;;9.40;;
35887;SDS011;21990;42.540;23.496;2023-09-18T09:17:46;15.00;;;7.95;;
35887;SDS011;21990;42.540;23.496;2023-09-18T09:20:12;18.67;;;9.25;;
35887;SDS011;21990;42.540;23.496;2023-09-18T09:22:40;16.00;;;9.88;;
35887;SDS011;21990;42.540;23.496;2023-09-18T09:25:39;12.20;;;8.40;;
35887;SDS011;21990;42.540;23.496;2023-09-18T09:28:00;13.98;;;7.80;;
35887;SDS011;21990;42.540;23.496;2023-09-18T09:30:31;17.63;;;8.70;;
35887;SDS011;21990;42.540;23.496;2023-09-18T09:33:03;13.40;;;6.75;;
35887;SDS011;21990;42.540;23.496;2023-09-18T09:35:34;12.80;;;7.28;;
35887;SDS011;21990;42.540;23.496;2023-09-18T09:38:06;14.20;;;6.75;;
35887;SDS011;21990;42.540;23.496;2023-09-18T09:40:33;13.27;;;6.45;;
35887;SDS011;21990;42.540;23.496;2023-09-18T09:43:00;10.95;;;7.28;;
35887;SDS011;21990;42.540;23.496;2023-09-18T09:45:28;12.70;;;7.47;;
35887;SDS011;21990;42.540;23.496;2023-09-18T09:47:55;18.55;;;6.32;;
35887;SDS011;21990;42.540;23.496;2023-09-18T09:50:21;13.50;;;6.13;;
35887;SDS011;21990;42.540;23.496;2023-09-18T09:52:51;9.80;;;6.13;;
35887;SDS011;21990;42.540;23.496;2023-09-18T09:55:19;10.40;;;6.22;;
35887;SDS011;21990;42.540;23.496;2023-09-18T09:57:50;13.20;;;6.35;;
35887;SDS011;21990;42.540;23.496;2023-09-18T10:00:17;11.70;;;6.57;;
35887;SDS011;21990;42.540;23.496;2023-09-18T10:03:00;10.60;;;6.45;;
35887;SDS011;21990;42.540;23.496;2023-09-18T10:05:29;12.55;;;6.60;;
35887;SDS011;21990;42.540;23.496;2023-09-18T10:07:58;12.40;;;6.50;;
35887;SDS011;21990;42.540;23.496;2023-09-18T10:10:36;15.68;;;6.10;;
35887;SDS011;21990;42.540;23.496;2023-09-18T10:13:08;9.77;;;5.80;;
35887;SDS011;21990;42.540;23.496;2023-09-18T10:15:37;13.05;;;5.93;;
35887;SDS011;21990;42.540;23.496;2023-09-18T10:18:10;9.77;;;5.45;;
35887;SDS011;21990;42.540;23.496;2023-09-18T10:20:42;10.88;;;5.93;;
35887;SDS011;21990;42.540;23.496;2023-09-18T10:23:12;9.98;;;5.68;;
35887;SDS011;21990;42.540;23.496;2023-09-18T10:25:49;9.25;;;5.35;;
35887;SDS011;21990;42.540;23.496;2023-09-18T10:28:20;9.38;;;5.13;;
35887;SDS011;21990;42.540;23.496;2023-09-18T10:30:48;7.70;;;5.00;;
35887;SDS011;21990;42.540;23.496;2023-09-18T10:33:15;13.23;;;5.32;;
35887;SDS011;21990;42.540;23.496;2023-09-18T10:35:41;11.35;;;5.13;;
35887;SDS011;21990;42.540;23.496;2023-09-18T10:38:08;10.43;;;5.70;;
35887;SDS011;21990;42.540;23.496;2023-09-18T10:40:35;8.07;;;5.18;;
35887;SDS011;21990;42.540;23.496;2023-09-18T10:43:02;9.27;;;4.97;;
35887;SDS011;21990;42.540;23.496;2023-09-18T10:45:30;10.55;;;5.25;;
35887;SDS011;21990;42.540;23.496;2023-09-18T10:47:56;8.98;;;5.15;;
35887;SDS011;21990;42.540;23.496;2023-09-18T10:50:26;9.38;;;5.07;;
35887;SDS011;21990;42.540;23.496;2023-09-18T10:52:56;7.70;;;4.88;;
35887;SDS011;21990;42.540;23.496;2023-09-18T10:55:23;12.82;;;5.25;;
35887;SDS011;21990;42.540;23.496;2023-09-18T10:57:50;9.18;;;5.00;;
35887;SDS011;21990;42.540;23.496;2023-09-18T11:00:21;14.25;;;5.43;;
35887;SDS011;21990;42.540;23.496;2023-09-18T11:03:10;7.50;;;4.90;;
35887;SDS011;21990;42.540;23.496;2023-09-18T11:05:48;10.35;;;4.32;;
35887;SDS011;21990;42.540;23.496;2023-09-18T11:08:27;13.00;;;5.18;;
35887;SDS011;21990;42.540;23.496;2023-09-18T11:11:02;12.98;;;4.82;;
35887;SDS011;21990;42.540;23.496;2023-09-18T11:13:39;10.70;;;5.20;;
35887;SDS011;21990;42.540;23.496;2023-09-18T11:16:13;12.32;;;5.07;;
35887;SDS011;21990;42.540;23.496;2023-09-18T11:18:51;11.00;;;4.55;;
35887;SDS011;21990;42.540;23.496;2023-09-18T11:21:18;7.00;;;4.40;;
35887;SDS011;21990;42.540;23.496;2023-09-18T11:24:09;8.30;;;4.85;;
35887;SDS011;21990;42.540;23.496;2023-09-18T11:26:41;7.88;;;4.53;;
35887;SDS011;21990;42.540;23.496;2023-09-18T11:29:08;11.30;;;4.65;;
35887;SDS011;21990;42.540;23.496;2023-09-18T11:31:43;10.88;;;4.90;;
35887;SDS011;21990;42.540;23.496;2023-09-18T11:34:23;9.95;;;5.20;;
35887;SDS011;21990;42.540;23.496;2023-09-18T11:37:19;6.60;;;4.45;;
35887;SDS011;21990;42.540;23.496;2023-09-18T11:39:46;6.10;;;3.90;;
35887;SDS011;21990;42.540;23.496;2023-09-18T11:42:12;9.50;;;4.38;;
35887;SDS011;21990;42.540;23.496;2023-09-18T11:44:45;5.97;;;4.07;;
35887;SDS011;21990;42.540;23.496;2023-09-18T11:47:14;9.55;;;4.20;;
35887;SDS011;21990;42.540;23.496;2023-09-18T11:49:49;11.30;;;4.53;;
35887;SDS011;21990;42.540;23.496;2023-09-18T11:52:22;8.70;;;4.03;;
35887;SDS011;21990;42.540;23.496;2023-09-18T11:55:00;12.77;;;3.65;;
35887;SDS011;21990;42.540;23.496;2023-09-18T11:57:26;8.07;;;3.85;;
35887;SDS011;21990;42.540;23.496;2023-09-18T11:59:53;8.40;;;4.10;;
35887;SDS011;21990;42.540;23.496;2023-09-18T12:02:30;12.48;;;3.80;;
35887;SDS011;21990;42.540;23.496;2023-09-18T12:05:16;5.97;;;3.90;;
35887;SDS011;21990;42.540;23.496;2023-09-18T12:07:44;7.32;;;4.40;;
35887;SDS011;21990;42.540;23.496;2023-09-18T12:10:12;10.65;;;4.72;;
35887;SDS011;21990;42.540;23.496;2023-09-18T12:12:42;8.80;;;4.03;;
35887;SDS011;21990;42.540;23.496;2023-09-18T12:15:12;9.52;;;4.05;;
35887;SDS011;21990;42.540;23.496;2023-09-18T12:17:40;6.13;;;4.13;;
35887;SDS011;21990;42.540;23.496;2023-09-18T12:20:06;7.72;;;4.15;;
35887;SDS011;21990;42.540;23.496;2023-09-18T12:22:32;12.70;;;4.15;;
35887;SDS011;21990;42.540;23.496;2023-09-18T12:25:13;9.80;;;3.70;;
35887;SDS011;21990;42.540;23.496;2023-09-18T12:27:40;10.02;;;4.10;;
35887;SDS011;21990;42.540;23.496;2023-09-18T12:30:07;13.48;;;3.80;;
35887;SDS011;21990;42.540;23.496;2023-09-18T12:32:39;5.45;;;3.58;;
35887;SDS011;21990;42.540;23.496;2023-09-18T12:35:05;6.05;;;3.60;;
35887;SDS011;21990;42.540;23.496;2023-09-18T12:37:35;5.50;;;3.38;;
35887;SDS011;21990;42.540;23.496;2023-09-18T12:40:05;7.18;;;3.85;;
35887;SDS011;21990;42.540;23.496;2023-09-18T12:42:36;6.78;;;3.83;;
35887;SDS011;21990;42.540;23.496;2023-09-18T12:45:06;5.90;;;3.60;;
35887;SDS011;21990;42.540;23.496;2023-09-18T12:47:33;8.02;;;3.83;;
35887;SDS011;21990;42.540;23.496;2023-09-18T12:50:05;7.03;;;3.53;;
35887;SDS011;21990;42.540;23.496;2023-09-18T12:52:36;7.10;;;3.40;;
35887;SDS011;21990;42.540;23.496;2023-09-18T12:55:01;7.47;;;3.65;;
35887;SDS011;21990;42.540;23.496;2023-09-18T12:57:29;6.35;;;3.92;;
35887;SDS011;21990;42.540;23.496;2023-09-18T12:59:55;11.93;;;3.90;;
35887;SDS011;21990;42.540;23.496;2023-09-18T13:02:21;4.90;;;3.75;;
35887;SDS011;21990;42.540;23.496;2023-09-18T13:04:51;7.80;;;4.00;;
35887;SDS011;21990;42.540;23.496;2023-09-18T13:07:18;8.80;;;4.10;;
35887;SDS011;21990;42.540;23.496;2023-09-18T13:10:05;9.55;;;3.97;;
35887;SDS011;21990;42.540;23.496;2023-09-18T13:12:39;10.70;;;3.80;;
35887;SDS011;21990;42.540;23.496;2023-09-18T13:15:36;6.47;;;3.78;;
35887;SDS011;21990;42.540;23.496;2023-09-18T13:18:08;8.13;;;3.30;;
35887;SDS011;21990;42.540;23.496;2023-09-18T13:20:35;10.93;;;4.00;;
35887;SDS011;21990;42.540;23.496;2023-09-18T13:23:01;9.57;;;3.88;;
35887;SDS011;21990;42.540;23.496;2023-09-18T13:27:59;5.93;;;3.85;;
35887;SDS011;21990;42.540;23.496;2023-09-18T13:30:27;7.10;;;3.65;;
35887;SDS011;21990;42.540;23.496;2023-09-18T13:33:00;6.82;;;3.65;;
35887;SDS011;21990;42.540;23.496;2023-09-18T13:35:29;6.00;;;3.40;;
35887;SDS011;21990;42.540;23.496;2023-09-18T13:37:55;6.78;;;3.50;;
35887;SDS011;21990;42.540;23.496;2023-09-18T13:40:20;14.77;;;3.92;;
35887;SDS011;21990;42.540;23.496;2023-09-18T13:42:50;13.82;;;3.92;;
35887;SDS011;21990;42.540;23.496;2023-09-18T13:45:16;5.97;;;3.60;;
35887;SDS011;21990;42.540;23.496;2023-09-18T13:47:41;14.10;;;3.83;;
35887;SDS011;21990;42.540;23.496;2023-09-18T13:50:08;6.55;;;3.60;;
35887;SDS011;21990;42.540;23.496;2023-09-18T13:52:35;6.20;;;3.35;;
35887;SDS011;21990;42.540;23.496;2023-09-18T13:55:02;7.30;;;4.18;;
35887;SDS011;21990;42.540;23.496;2023-09-18T13:57:33;9.20;;;3.75;;
35887;SDS011;21990;42.540;23.496;2023-09-18T14:00:00;10.23;;;3.40;;
35887;SDS011;21990;42.540;23.496;2023-09-18T14:02:26;5.90;;;3.35;;
35887;SDS011;21990;42.540;23.496;2023-09-18T14:04:53;27.08;;;4.45;;
35887;SDS011;21990;42.540;23.496;2023-09-18T14:07:19;7.05;;;3.80;;
35887;SDS011;21990;42.540;23.496;2023-09-18T14:09:45;7.53;;;3.42;;
35887;SDS011;21990;42.540;23.496;2023-09-18T14:12:13;17.73;;;3.88;;
35887;SDS011;21990;42.540;23.496;2023-09-18T14:14:40;10.10;;;3.45;;
35887;SDS011;21990;42.540;23.496;2023-09-18T14:17:07;13.60;;;3.85;;
35887;SDS011;21990;42.540;23.496;2023-09-18T14:19:33;7.70;;;3.53;;
35887;SDS011;21990;42.540;23.496;2023-09-18T14:22:00;5.35;;;3.85;;
35887;SDS011;21990;42.540;23.496;2023-09-18T14:24:30;10.43;;;4.40;;
35887;SDS011;21990;42.540;23.496;2023-09-18T14:26:56;12.15;;;4.22;;
35887;SDS011;21990;42.540;23.496;2023-09-18T14:29:22;6.93;;;3.83;;
35887;SDS011;21990;42.540;23.496;2023-09-18T14:31:47;15.05;;;4.00;;
35887;SDS011;21990;42.540;23.496;2023-09-18T14:34:13;16.30;;;4.30;;
35887;SDS011;21990;42.540;23.496;2023-09-18T14:36:39;13.82;;;4.10;;
35887;SDS011;21990;42.540;23.496;2023-09-18T14:39:05;11.35;;;3.90;;
35887;SDS011;21990;42.540;23.496;2023-09-18T14:41:37;10.70;;;4.22;;
35887;SDS011;21990;42.540;23.496;2023-09-18T14:44:03;12.27;;;3.92;;
35887;SDS011;21990;42.540;23.496;2023-09-18T14:46:30;7.70;;;3.58;;
35887;SDS011;21990;42.540;23.496;2023-09-18T14:48:58;7.88;;;3.97;;
35887;SDS011;21990;42.540;23.496;2023-09-18T14:51:26;6.35;;;4.15;;
35887;SDS011;21990;42.540;23.496;2023-09-18T14:53:53;11.45;;;4.28;;
35887;SDS011;21990;42.540;23.496;2023-09-18T14:56:19;13.85;;;4.78;;
35887;SDS011;21990;42.540;23.496;2023-09-18T14:58:45;10.60;;;4.28;;
35887;SDS011;21990;42.540;23.496;2023-09-18T15:01:11;9.25;;;3.83;;
35887;SDS011;21990;42.540;23.496;2023-09-18T15:03:37;10.30;;;3.58;;
35887;SDS011;21990;42.540;23.496;2023-09-18T15:06:03;14.43;;;4.45;;
35887;SDS011;21990;42.540;23.496;2023-09-18T15:08:29;7.22;;;4.15;;
35887;SDS011;21990;42.540;23.496;2023-09-18T15:10:55;9.25;;;4.40;;
35887;SDS011;21990;42.540;23.496;2023-09-18T15:13:21;13.32;;;4.38;;
35887;SDS011;21990;42.540;23.496;2023-09-18T15:15:46;6.57;;;4.25;;
35887;SDS011;21990;42.540;23.496;2023-09-18T15:18:12;10.45;;;4.40;;
35887;SDS011;21990;42.540;23.496;2023-09-18T15:20:37;15.57;;;4.32;;
35887;SDS011;21990;42.540;23.496;2023-09-18T15:23:05;9.35;;;4.53;;
35887;SDS011;21990;42.540;23.496;2023-09-18T15:25:32;10.77;;;4.57;;
35887;SDS011;21990;42.540;23.496;2023-09-18T15:28:03;8.50;;;4.75;;
35887;SDS011;21990;42.540;23.496;2023-09-18T15:30:30;11.95;;;4.57;;
35887;SDS011;21990;42.540;23.496;2023-09-18T15:32:55;8.63;;;4.38;;
35887;SDS011;21990;42.540;23.496;2023-09-18T15:35:21;15.88;;;4.45;;
35887;SDS011;21990;42.540;23.496;2023-09-18T15:37:51;8.85;;;4.90;;
35887;SDS011;21990;42.540;23.496;2023-09-18T15:40:18;13.20;;;5.03;;
35887;SDS011;21990;42.540;23.496;2023-09-18T15:42:46;19.10;;;5.75;;
35887;SDS011;21990;42.540;23.496;2023-09-18T15:45:12;20.85;;;4.90;;
35887;SDS011;21990;42.540;23.496;2023-09-18T15:47:38;20.65;;;4.72;;
35887;SDS011;21990;42.540;23.496;2023-09-18T15:50:07;14.15;;;4.72;;
35887;SDS011;21990;42.540;23.496;2023-09-18T15:52:35;8.48;;;4.70;;
35887;SDS011;21990;42.540;23.496;2023-09-18T15:55:01;12.73;;;4.95;;
35887;SDS011;21990;42.540;23.496;2023-09-18T15:57:32;15.93;;;5.28;;
35887;SDS011;21990;42.540;23.496;2023-09-18T16:00:02;31.70;;;5.68;;
35887;SDS011;21990;42.540;23.496;2023-09-18T16:02:32;16.98;;;5.15;;
35887;SDS011;21990;42.540;23.496;2023-09-18T16:04:58;9.25;;;4.70;;
35887;SDS011;21990;42.540;23.496;2023-09-18T16:07:25;12.05;;;5.00;;
35887;SDS011;21990;42.540;23.496;2023-09-18T16:09:52;15.90;;;4.75;;
35887;SDS011;21990;42.540;23.496;2023-09-18T16:12:19;19.83;;;5.00;;
35887;SDS011;21990;42.540;23.496;2023-09-18T16:14:44;9.30;;;4.10;;
35887;SDS011;21990;42.540;23.496;2023-09-18T16:17:10;12.82;;;5.07;;
35887;SDS011;21990;42.540;23.496;2023-09-18T16:19:35;12.13;;;4.63;;
35887;SDS011;21990;42.540;23.496;2023-09-18T16:22:01;18.80;;;4.85;;
35887;SDS011;21990;42.540;23.496;2023-09-18T16:24:27;21.60;;;5.25;;
35887;SDS011;21990;42.540;23.496;2023-09-18T16:26:53;26.83;;;5.22;;
35887;SDS011;21990;42.540;23.496;2023-09-18T16:29:22;24.02;;;5.20;;
35887;SDS011;21990;42.540;23.496;2023-09-18T16:31:49;10.68;;;5.18;;
35887;SDS011;21990;42.540;23.496;2023-09-18T16:34:14;7.47;;;5.38;;
35887;SDS011;21990;42.540;23.496;2023-09-18T16:36:40;15.43;;;5.50;;
35887;SDS011;21990;42.540;23.496;2023-09-18T16:39:06;21.45;;;5.53;;
35887;SDS011;21990;42.540;23.496;2023-09-18T16:41:32;18.52;;;5.00;;
35887;SDS011;21990;42.540;23.496;2023-09-18T16:43:57;18.25;;;6.28;;
35887;SDS011;21990;42.540;23.496;2023-09-18T16:46:23;20.33;;;5.47;;
35887;SDS011;21990;42.540;23.496;2023-09-18T16:48:49;16.77;;;5.28;;
35887;SDS011;21990;42.540;23.496;2023-09-18T16:51:15;10.95;;;5.43;;
35887;SDS011;21990;42.540;23.496;2023-09-18T16:53:40;24.48;;;5.55;;
35887;SDS011;21990;42.540;23.496;2023-09-18T16:56:06;32.97;;;5.80;;
35887;SDS011;21990;42.540;23.496;2023-09-18T16:58:31;23.02;;;5.80;;
35887;SDS011;21990;42.540;23.496;2023-09-18T17:00:57;14.80;;;5.90;;
35887;SDS011;21990;42.540;23.496;2023-09-18T17:03:23;14.43;;;6.20;;
35887;SDS011;21990;42.540;23.496;2023-09-18T17:05:49;12.23;;;5.47;;
35887;SDS011;21990;42.540;23.496;2023-09-18T17:08:14;12.75;;;6.03;;
35887;SDS011;21990;42.540;23.496;2023-09-18T17:10:40;13.45;;;6.85;;
35887;SDS011;21990;42.540;23.496;2023-09-18T17:13:07;19.23;;;9.23;;
35887;SDS011;21990;42.540;23.496;2023-09-18T17:15:34;28.08;;;10.95;;
35887;SDS011;21990;42.540;23.496;2023-09-18T17:18:00;23.95;;;12.43;;
35887;SDS011;21990;42.540;23.496;2023-09-18T17:20:29;20.08;;;11.68;;
35887;SDS011;21990;42.540;23.496;2023-09-18T17:22:55;34.80;;;9.45;;
35887;SDS011;21990;42.540;23.496;2023-09-18T17:25:24;17.08;;;7.30;;
35887;SDS011;21990;42.540;23.496;2023-09-18T17:27:51;20.20;;;6.88;;
35887;SDS011;21990;42.540;23.496;2023-09-18T17:30:16;12.00;;;6.10;;